This is the latest recevied weather packets stored in our database for station/object WA2FTC. If no packets are shown the sender has not sent any weather packets the latest 10 day(s).
| Time | Temp. | Humidity | Pressure | Rain* | Wind** | Luminosity | Snow |
|---|---|---|---|---|---|---|---|
| 1777851041 | 22.78° C | 72% | 1015.1 hPa | 0 mm | - | - | - |
| 1777850141 | 23.33° C | 71% | 1015.2 hPa | 0 mm | - | - | - |
| 1777849241 | 23.89° C | 70% | 1015.2 hPa | 0 mm | - | - | - |
| 1777848338 | 24.44° C | 68% | 1015.2 hPa | 0 mm | - | - | - |
| 1777847437 | 25° C | 67% | 1015.1 hPa | 0 mm | - | - | - |
| 1777846543 | 25.56° C | 66% | 1015.1 hPa | 0 mm | - | - | - |
| 1777845634 | 25.56° C | 64% | 1014.9 hPa | 0 mm | - | - | - |
| 1777844737 | 26.67° C | 61% | 1014.9 hPa | 0 mm | - | - | - |
| 1777843841 | 27.22° C | 59% | 1014.7 hPa | 0 mm | - | - | - |
| 1777842936 | 30.56° C | 52% | 1014.7 hPa | 0 mm | - | - | - |
| 1777842030 | 28.33° C | 57% | 1014.9 hPa | 0 mm | - | - | - |
| 1777841132 | 29.44° C | 54% | 1014.9 hPa | 0 mm | - | - | - |
| 1777840229 | 30.56° C | 52% | 1015 hPa | 0 mm | - | - | - |
| 1777839329 | 33.89° C | 47% | 1015 hPa | 0 mm | - | - | - |
| 1777838459 | 32.78° C | 49% | 1015 hPa | 0 mm | - | - | - |
| 1777837559 | 35° C | 48% | 1015.3 hPa | 0 mm | - | - | - |
| 1777836628 | 30.56° C | 53% | 1015.7 hPa | 0 mm | - | - | - |
| 1777835726 | 31.67° C | 53% | 1016 hPa | 0 mm | - | - | - |
| 1777834867 | 36.67° C | 43% | 1016.1 hPa | 0 mm | - | - | - |
| 1777833956 | 32.78° C | 52% | 1016.3 hPa | 0 mm | - | - | - |
| 1777833023 | 32.78° C | 52% | 1016.4 hPa | 0 mm | - | - | - |
| 1777832121 | 33.33° C | 57% | 1016.4 hPa | 0 mm | - | - | - |
| 1777831280 | 32.22° C | 54% | 1016.7 hPa | 0 mm | - | - | - |
| 1777830317 | 33.89° C | 55% | 1016.7 hPa | 0 mm | - | - | - |
| 1777829415 | 32.22° C | 58% | 1016.7 hPa | 0 mm | - | - | - |
* Rain latest hour (hover to see other rain measurements)
** Current wind speed in m/s (hover to see current wind gust speed)